Time;durP1;ratioP1;P1;durP2;ratioP2;P2;SDS_P1;SDS_P2;PMS_P1;PMS_P2;Temp;Humidity;BMP_temperature;BMP_pressure;BME280_temperature;BME280_humidity;BME280_pressure;Samples;Min_cycle;Max_cycle;Signal;HPM_P1;HPM_P2
2021/11/01 00:01:21;;;;;;;;;;;;;;;;;;5114706;28;19941;-77
2021/11/01 00:03:46;;;;;;;;;;;;;;;;;;5114663;28;19972;-77
2021/11/01 00:06:14;;;;;;;;;;;;;;;;;;5113924;28;21239;-76
2021/11/01 00:08:41;;;;;;;;;;;;;;;;;;5114733;28;19922;-77
2021/11/01 00:11:07;;;;;;;;;;;;;;;;;;5114582;28;19923;-77
2021/11/01 00:13:32;;;;;;;;;;;;;;;;;;5114486;28;20295;-77
2021/11/01 00:15:58;;;;;;;;;;;;;;;;;;5114492;28;19920;-77
2021/11/01 00:18:23;;;;;;;;;;;;;;;;;;5114457;28;19962;-77
2021/11/01 00:20:49;;;;;;;;;;;;;;;;;;5114428;28;19923;-77
2021/11/01 00:23:14;;;;;;;;;;;;;;;;;;5113116;28;19922;-77
2021/11/01 00:25:40;;;;;;;;;;;;;;;;;;5114675;28;19923;-77
2021/11/01 00:28:05;;;;;;;;;;;;;;;;;;5113693;28;19988;-77
2021/11/01 00:30:31;;;;;;;;;;;;;;;;;;5114728;28;20339;-77
2021/11/01 00:32:56;;;;;;;;;;;;;;;;;;5114301;28;19955;-77
2021/11/01 00:35:22;;;;;;;;;;;;;;;;;;5114331;28;19961;-77
2021/11/01 00:37:48;;;;;;;;;;;;;;;;;;5114366;28;20371;-77
2021/11/01 00:40:13;;;;;;;;;;;;;;;;;;5114246;28;20426;-78
2021/11/01 00:42:38;;;;;;;;;;;;;;;;;;5114668;28;20011;-77
2021/11/01 00:45:04;;;;;;;;;;;;;;;;;;5114319;28;20363;-77
2021/11/01 00:47:30;;;;;;;;;;;;;;;;;;5114455;28;20337;-77
2021/11/01 00:49:56;;;;;;;;;;;;;;;;;;5114292;28;19920;-77
2021/11/01 00:52:25;;;;;;;;;;;;;;;;;;5114108;28;19916;-77
2021/11/01 00:54:52;;;;;;;;;;;;;;;;;;5114098;28;19916;-77
2021/11/01 00:57:17;;;;;;;;;;;;;;;;;;5114077;28;19998;-77
2021/11/01 00:59:43;;;;;;;;;;;;;;;;;;5114081;28;19966;-79
2021/11/01 01:02:10;;;;;;;;;;;;;;;;;;5114036;28;20401;-77
2021/11/01 01:04:35;;;;;;;;;;;;;;;;;;5114350;28;20252;-77
2021/11/01 01:07:01;;;;;;;;;;;;;;;;;;5115671;28;19923;-77
2021/11/01 01:09:27;;;;;;;;;;;;;;;;;;5116143;28;20378;-76
2021/11/01 01:11:52;;;;;;;;;;;;;;;;;;5114145;28;20431;-77
2021/11/01 01:14:25;;;;;;;;;;;;;;;;;;5114068;28;19915;-79
2021/11/01 01:16:51;;;;;;;;;;;;;;;;;;5113942;28;20011;-78
2021/11/01 01:19:19;;;;;;;;;;;;;;;;;;5113957;28;19960;-79
2021/11/01 01:24:28;;;;;;;;;;;;;;;;;;5114490;28;19922;-77
2021/11/01 01:26:54;;;;;;;;;;;;;;;;;;5113830;28;20010;-77
2021/11/01 01:29:20;;;;;;;;;;;;;;;;;;5113876;28;20252;-77
2021/11/01 01:31:45;;;;;;;;;;;;;;;;;;5113813;28;19915;-77
2021/11/01 01:34:11;;;;;;;;;;;;;;;;;;5113772;28;19966;-79
2021/11/01 01:36:36;;;;;;;;;;;;;;;;;;5113843;28;19955;-78
2021/11/01 01:39:02;;;;;;;;;;;;;;;;;;5115942;28;19916;-77
2021/11/01 01:41:28;;;;;;;;;;;;;;;;;;5116093;28;19923;-78
2021/11/01 01:43:56;;;;;;;;;;;;;;;;;;5117391;28;20389;-78
2021/11/01 01:46:22;;;;;;;;;;;;;;;;;;5117268;27;20372;-78
2021/11/01 01:48:47;;;;;;;;;;;;;;;;;;5117298;28;19916;-78
2021/11/01 01:51:16;;;;;;;;;;;;;;;;;;5117508;28;19923;-79
2021/11/01 01:53:42;;;;;;;;;;;;;;;;;;5117287;28;19916;-77
2021/11/01 01:56:07;;;;;;;;;;;;;;;;;;5117154;28;19922;-77
2021/11/01 01:58:35;;;;;;;;;;;;;;;;;;5117111;28;19996;-78
2021/11/01 02:03:32;;;;;;;;;;;;;;;;;;5116938;28;20014;-78
2021/11/01 02:06:06;;;;;;;;;;;;;;;;;;5117019;28;20032;-78
2021/11/01 02:08:37;;;;;;;;;;;;;;;;;;5117033;28;20363;-79
2021/11/01 02:11:06;;;;;;;;;;;;;;;;;;5116955;28;19916;-79
2021/11/01 02:13:33;;;;;;;;;;;;;;;;;;5117016;28;20356;-77
2021/11/01 02:15:59;;;;;;;;;;;;;;;;;;5116721;28;19916;-78
2021/11/01 02:18:25;;;;;;;;;;;;;;;;;;5116673;28;19918;-80
2021/11/01 02:21:03;;;;;;;;;;;;;;;;;;5116643;27;20433;-78
2021/11/01 02:23:47;;;;;;;;;;;;;;;;;;5116470;28;20001;-79
2021/11/01 02:26:14;;;;;;;;;;;;;;;;;;5116508;28;20395;-78
2021/11/01 02:28:41;;;;;;;;;;;;;;;;;;5116419;28;19951;-78
2021/11/01 02:31:08;;;;;;;;;;;;;;;;;;5116500;28;19927;-78
2021/11/01 02:33:34;;;;;;;;;;;;;;;;;;5115169;28;19916;-77
2021/11/01 02:36:00;;;;;;;;;;;;;;;;;;5116290;28;19916;-77
2021/11/01 02:38:31;;;;;;;;;;;;;;;;;;5116470;28;19965;-78
2021/11/01 02:40:57;;;;;;;;;;;;;;;;;;5116258;28;19980;-77
2021/11/01 02:43:25;;;;;;;;;;;;;;;;;;5116193;28;19916;-79
2021/11/01 02:45:50;;;;;;;;;;;;;;;;;;5116152;28;19916;-78
2021/11/01 02:48:16;;;;;;;;;;;;;;;;;;5116131;28;19927;-78
2021/11/01 02:50:41;;;;;;;;;;;;;;;;;;5114065;28;19923;-78
2021/11/01 02:53:07;;;;;;;;;;;;;;;;;;5116122;28;20014;-77
2021/11/01 02:55:34;;;;;;;;;;;;;;;;;;5116192;28;20303;-77
2021/11/01 02:57:59;;;;;;;;;;;;;;;;;;5116280;28;19961;-77
2021/11/01 03:00:26;;;;;;;;;;;;;;;;;;5114362;28;19920;-77
2021/11/01 03:02:52;;;;;;;;;;;;;;;;;;5115730;28;20010;-77
2021/11/01 03:05:19;;;;;;;;;;;;;;;;;;5115810;28;19961;-77
2021/11/01 03:07:46;;;;;;;;;;;;;;;;;;5115961;28;19977;-77
2021/11/01 03:10:12;;;;;;;;;;;;;;;;;;5115943;28;19961;-78
2021/11/01 03:12:41;;;;;;;;;;;;;;;;;;5115857;28;19916;-77
2021/11/01 03:15:08;;;;;;;;;;;;;;;;;;5115573;28;20001;-77
2021/11/01 03:17:38;;;;;;;;;;;;;;;;;;5115509;28;19916;-77
2021/11/01 03:20:18;;;;;;;;;;;;;;;;;;5115480;28;20031;-77
2021/11/01 03:22:48;;;;;;;;;;;;;;;;;;5115811;27;19916;-77
2021/11/01 03:25:20;;;;;;;;;;;;;;;;;;5115692;28;20015;-77
2021/11/01 03:27:47;;;;;;;;;;;;;;;;;;5115422;28;19916;-78
2021/11/01 03:30:14;;;;;;;;;;;;;;;;;;5115320;28;19959;-77
2021/11/01 03:32:39;;;;;;;;;;;;;;;;;;5115234;28;19912;-78
2021/11/01 03:35:06;;;;;;;;;;;;;;;;;;5115208;28;19916;-78
2021/11/01 03:37:32;;;;;;;;;;;;;;;;;;5115087;28;20392;-78
2021/11/01 03:39:59;;;;;;;;;;;;;;;;;;5115093;28;19918;-78
2021/11/01 03:42:25;;;;;;;;;;;;;;;;;;5115294;27;19923;-77
2021/11/01 03:44:57;;;;;;;;;;;;;;;;;;5115027;28;19941;-78
2021/11/01 03:47:25;;;;;;;;;;;;;;;;;;5115023;28;19919;-78
2021/11/01 03:49:56;;;;;;;;;;;;;;;;;;5114975;28;20325;-78
2021/11/01 03:52:24;;;;;;;;;;;;;;;;;;5115534;28;20014;-78
2021/11/01 03:54:51;;;;;;;;;;;;;;;;;;5115327;28;19994;-76
2021/11/01 03:57:17;;;;;;;;;;;;;;;;;;5114861;28;19920;-78
2021/11/01 03:59:42;;;;;;;;;;;;;;;;;;5113331;28;19926;-78
2021/11/01 04:02:12;;;;;;;;;;;;;;;;;;5114676;28;19916;-79
2021/11/01 04:04:38;;;;;;;;;;;;;;;;;;5114722;28;19923;-79
2021/11/01 04:07:04;;;;;;;;;;;;;;;;;;5114736;28;19916;-80
2021/11/01 04:09:29;;;;;;;;;;;;;;;;;;5114631;28;19968;-77
2021/11/01 04:11:55;;;;;;;;;;;;;;;;;;5114856;28;19943;-78
2021/11/01 04:14:26;;;;;;;;;;;;;;;;;;5114554;28;19916;-77
2021/11/01 04:16:57;;;;;;;;;;;;;;;;;;5114636;28;20010;-77
2021/11/01 04:21:51;;;;;;;;;;;;;;;;;;5114688;28;19920;-77
2021/11/01 04:24:18;;;;;;;;;;;;;;;;;;5114574;28;20010;-77
2021/11/01 04:26:44;;;;;;;;;;;;;;;;;;5114421;28;19911;-77
2021/11/01 04:29:10;;;;;;;;;;;;;;;;;;5114532;28;19923;-78
2021/11/01 04:31:38;;;;;;;;;;;;;;;;;;5114361;28;19973;-77
2021/11/01 04:37:08;;;;;;;;;;;;;;;;;;5071603;28;19916;-77
2021/11/01 04:42:46;;;;;;;;;;;;;;;;;;5071791;28;19916;-77
2021/11/01 04:53:41;;;;;;;;;;;;;;;;;;5071926;28;19919;-77
2021/11/01 04:56:06;;;;;;;;;;;;;;;;;;5071742;28;20325;-78
2021/11/01 04:58:32;;;;;;;;;;;;;;;;;;5071541;28;20012;-79
2021/11/01 05:00:58;;;;;;;;;;;;;;;;;;5071313;28;19920;-80
2021/11/01 05:05:52;;;;;;;;;;;;;;;;;;5071494;28;19917;-79
2021/11/01 05:08:21;;;;;;;;;;;;;;;;;;5099973;28;20374;-78
2021/11/01 05:10:50;;;;;;;;;;;;;;;;;;5113978;28;19937;-80
2021/11/01 05:13:24;;;;;;;;;;;;;;;;;;5115089;28;20410;-78
2021/11/01 05:15:55;;;;;;;;;;;;;;;;;;5118477;28;19961;-78
2021/11/01 05:18:29;;;;;;;;;;;;;;;;;;5116732;28;19919;-78
2021/11/01 05:21:05;;;;;;;;;;;;;;;;;;5118128;28;19950;-78
2021/11/01 05:23:37;;;;;;;;;;;;;;;;;;5117770;28;19916;-78
2021/11/01 05:26:21;;;;;;;;;;;;;;;;;;5117772;28;19999;-77
2021/11/01 05:28:58;;;;;;;;;;;;;;;;;;5117679;28;19920;-78
2021/11/01 05:31:24;;;;;;;;;;;;;;;;;;5117663;28;19916;-80
2021/11/01 05:36:15;;;;;;;;;;;;;;;;;;5117937;28;19920;-77
2021/11/01 05:38:41;;;;;;;;;;;;;;;;;;5117505;28;19916;-78
2021/11/01 05:41:08;;;;;;;;;;;;;;;;;;5117439;28;19916;-78
2021/11/01 05:43:33;;;;;;;;;;;;;;;;;;5118184;28;20390;-76
2021/11/01 05:45:59;;;;;;;;;;;;;;;;;;5117328;28;19916;-77
2021/11/01 05:48:24;;;;;;;;;;;;;;;;;;5117370;28;20371;-77
2021/11/01 05:50:50;;;;;;;;;;;;;;;;;;5117503;28;19923;-77
2021/11/01 05:53:15;;;;;;;;;;;;;;;;;;5117174;28;20023;-78
2021/11/01 05:56:14;;;;;;;;;;;;;;;;;;5117150;28;20371;-77
2021/11/01 06:04:06;;;;;;;;;;;;;;;;;;5117046;27;19938;-78
2021/11/01 06:14:33;;;;;;;;;;;;;;;;;;5117238;28;19961;-78
2021/11/01 06:16:59;;;;;;;;;;;;;;;;;;5116721;28;20325;-79
2021/11/01 06:19:25;;;;;;;;;;;;;;;;;;5116704;28;19916;-81
2021/11/01 06:21:51;;;;;;;;;;;;;;;;;;5116576;28;19916;-78
2021/11/01 06:26:54;;;;;;;;;;;;;;;;;;5117066;28;19919;-77
2021/11/01 06:29:25;;;;;;;;;;;;;;;;;;5116728;28;20003;-77
2021/11/01 06:32:00;;;;;;;;;;;;;;;;;;5116571;28;20400;-77
2021/11/01 06:34:45;;;;;;;;;;;;;;;;;;5116408;28;19955;-78
2021/11/01 06:45:28;;;;;;;;;;;;;;;;;;5116526;28;20355;-77
2021/11/01 06:51:03;;;;;;;;;;;;;;;;;;5116816;28;19961;-77
2021/11/01 06:53:55;;;;;;;;;;;;;;;;;;5116080;28;19923;-77
2021/11/01 07:15:23;;;;;;;;;;;;;;;;;;5073031;28;19926;-78
2021/11/01 07:23:38;;;;;;;;;;;;;;;;;;5072799;28;20018;-77
2021/11/01 08:21:07;;;;;;;;;;;;;;;;;;5115004;28;19923;-77
2021/11/01 08:29:04;;;;;;;;;;;;;;;;;;5115055;28;20022;-75
2021/11/01 08:40:07;;;;;;;;;;;;;;;;;;5114394;28;19934;-76
2021/11/01 08:45:21;;;;;;;;;;;;;;;;;;5114246;28;19969;-78
2021/11/01 09:22:40;;;;;;;;;;;;;;;;;;5075379;28;19917;-79
2021/11/01 09:25:11;;;;;;;;;;;;;;;;;;5074779;28;20058;-77
2021/11/01 09:27:39;;;;;;;;;;;;;;;;;;5104599;28;20376;-77
2021/11/01 09:43:08;;;;;;;;;;;;;;;;;;5117614;28;19923;-77
2021/11/01 09:45:36;;;;;;;;;;;;;;;;;;5117405;28;19916;-77
2021/11/01 09:48:02;;;;;;;;;;;;;;;;;;5117640;28;19911;-78
2021/11/01 09:50:28;;;;;;;;;;;;;;;;;;5117285;28;19955;-77
2021/11/01 09:52:57;;;;;;;;;;;;;;;;;;5117176;28;19954;-77
2021/11/01 10:00:49;;;;;;;;;;;;;;;;;;5116869;28;19927;-77
2021/11/01 10:03:14;;;;;;;;;;;;;;;;;;5115643;28;19916;-77
2021/11/01 10:05:44;;;;;;;;;;;;;;;;;;5117094;27;19923;-77
2021/11/01 10:08:19;;;;;;;;;;;;;;;;;;5116953;28;19918;-77
2021/11/01 10:10:44;;;;;;;;;;;;;;;;;;5116998;28;19916;-77
2021/11/01 10:13:14;;;;;;;;;;;;;;;;;;5116870;28;20451;-78
2021/11/01 10:18:24;;;;;;;;;;;;;;;;;;5117186;28;19922;-77
2021/11/01 10:20:54;;;;;;;;;;;;;;;;;;5116847;28;19951;-77
2021/11/01 10:23:23;;;;;;;;;;;;;;;;;;5115375;28;19916;-77
2021/11/01 10:26:10;;;;;;;;;;;;;;;;;;5116761;27;20410;-77
2021/11/01 10:28:36;;;;;;;;;;;;;;;;;;5116674;28;19916;-77
2021/11/01 10:31:12;;;;;;;;;;;;;;;;;;5116565;28;19969;-77
2021/11/01 10:33:44;;;;;;;;;;;;;;;;;;5116814;27;20314;-78
2021/11/01 10:36:29;;;;;;;;;;;;;;;;;;5116451;28;19923;-79
2021/11/01 10:38:56;;;;;;;;;;;;;;;;;;5115942;28;20010;-77
2021/11/01 10:41:38;;;;;;;;;;;;;;;;;;5116290;28;19915;-77
2021/11/01 11:19:13;;;;;;;;;;;;;;;;;;5115492;28;19916;-78
2021/11/01 11:24:43;;;;;;;;;;;;;;;;;;5115522;28;19976;-77
2021/11/01 11:48:44;;;;;;;;;;;;;;;;;;5115379;28;19923;-77
2021/11/01 11:51:10;;;;;;;;;;;;;;;;;;5115004;28;19916;-78
2021/11/01 11:53:49;;;;;;;;;;;;;;;;;;5114986;28;19923;-77
2021/11/01 11:56:15;;;;;;;;;;;;;;;;;;5114961;28;19922;-77
2021/11/01 11:58:43;;;;;;;;;;;;;;;;;;5115268;28;19969;-80
2021/11/01 12:01:24;;;;;;;;;;;;;;;;;;5115008;28;19928;-77
2021/11/01 12:03:50;;;;;;;;;;;;;;;;;;5114739;28;19916;-78
2021/11/01 12:06:20;;;;;;;;;;;;;;;;;;5114869;28;19919;-78
2021/11/01 12:08:50;;;;;;;;;;;;;;;;;;5114774;28;20014;-78
2021/11/01 12:19:05;;;;;;;;;;;;;;;;;;5114617;28;19927;-79
2021/11/01 12:21:31;;;;;;;;;;;;;;;;;;5114462;28;19916;-78
2021/11/01 12:23:57;;;;;;;;;;;;;;;;;;5113478;28;20360;-77
2021/11/01 12:26:24;;;;;;;;;;;;;;;;;;5114736;28;19916;-77
2021/11/01 12:28:51;;;;;;;;;;;;;;;;;;5114422;28;19915;-77
2021/11/01 12:31:17;;;;;;;;;;;;;;;;;;5114370;28;20346;-83
2021/11/01 12:36:52;;;;;;;;;;;;;;;;;;5090841;28;19916;-77
2021/11/01 12:39:22;;;;;;;;;;;;;;;;;;5114311;28;19915;-78
2021/11/01 12:42:22;;;;;;;;;;;;;;;;;;5114275;28;20382;-78
2021/11/01 12:57:59;;;;;;;;;;;;;;;;;;5114659;28;19923;-77
2021/11/01 13:00:32;;;;;;;;;;;;;;;;;;5114059;28;19919;-78
2021/11/01 13:03:08;;;;;;;;;;;;;;;;;;5114023;28;19916;-80
2021/11/01 13:05:42;;;;;;;;;;;;;;;;;;5114482;28;19959;-77
2021/11/01 13:08:10;;;;;;;;;;;;;;;;;;5114056;28;19916;-78
2021/11/01 13:13:35;;;;;;;;;;;;;;;;;;5114294;28;20033;-78
2021/11/01 13:19:03;;;;;;;;;;;;;;;;;;5114062;28;19922;-77
2021/11/01 13:21:31;;;;;;;;;;;;;;;;;;5113935;28;19923;-77
2021/11/01 13:24:03;;;;;;;;;;;;;;;;;;5113779;28;19920;-77
2021/11/01 13:26:55;;;;;;;;;;;;;;;;;;5113909;28;19915;-78
2021/11/01 13:35:00;;;;;;;;;;;;;;;;;;5116080;28;19923;-79
2021/11/01 13:37:34;;;;;;;;;;;;;;;;;;5117633;28;19938;-77
2021/11/01 13:40:03;;;;;;;;;;;;;;;;;;5117813;27;19916;-77
2021/11/01 13:42:29;;;;;;;;;;;;;;;;;;5117384;28;19916;-77
2021/11/01 13:45:04;;;;;;;;;;;;;;;;;;5117698;28;19916;-77
2021/11/01 13:47:38;;;;;;;;;;;;;;;;;;5117813;28;19961;-78
2021/11/01 13:50:05;;;;;;;;;;;;;;;;;;5117757;28;19916;-77
2021/11/01 13:52:41;;;;;;;;;;;;;;;;;;5117570;27;19916;-78
2021/11/01 13:55:20;;;;;;;;;;;;;;;;;;5117262;28;19973;-79
2021/11/01 13:57:46;;;;;;;;;;;;;;;;;;5117506;28;19922;-77
2021/11/01 14:13:54;;;;;;;;;;;;;;;;;;5117050;28;20286;-79
2021/11/01 14:16:28;;;;;;;;;;;;;;;;;;5116832;28;19920;-78
2021/11/01 14:29:43;;;;;;;;;;;;;;;;;;5116901;28;19938;-78
2021/11/01 15:11:05;;;;;;;;;;;;;;;;;;5073629;28;19924;-77
2021/11/01 15:13:41;;;;;;;;;;;;;;;;;;5102783;28;19947;-78
2021/11/01 15:18:57;;;;;;;;;;;;;;;;;;5115629;28;19947;-77
2021/11/01 15:26:57;;;;;;;;;;;;;;;;;;5115729;28;20306;-78
2021/11/01 15:30:54;;;;;;;;;;;;;;;;;;5115439;28;19916;-78
2021/11/01 16:15:19;;;;;;;;;;;;;;;;;;5072965;28;20011;-78
2021/11/01 16:18:47;;;;;;;;;;;;;;;;;;5123463;27;20298;-76
2021/11/01 16:21:12;;;;;;;;;;;;;;;;;;5125075;27;19915;-77
2021/11/01 16:23:38;;;;;;;;;;;;;;;;;;5120093;27;20368;-76
2021/11/01 16:26:19;;;;;;;;;;;;;;;;;;5114878;28;19916;-76
2021/11/01 16:28:46;;;;;;;;;;;;;;;;;;5114699;28;20271;-76
2021/11/01 16:31:26;;;;;;;;;;;;;;;;;;5120652;27;19916;-77
2021/11/01 16:33:57;;;;;;;;;;;;;;;;;;5131194;27;19916;-77
2021/11/01 16:36:43;;;;;;;;;;;;;;;;;;5143791;27;19937;-93
2021/11/01 16:39:09;;;;;;;;;;;;;;;;;;5124552;28;19922;-91
2021/11/01 16:41:35;;;;;;;;;;;;;;;;;;5134482;28;19963;-92
2021/11/01 16:44:13;;;;;;;;;;;;;;;;;;5126599;27;20279;-83
2021/11/01 16:46:38;;;;;;;;;;;;;;;;;;5125735;27;19915;-84
2021/11/01 16:49:04;;;;;;;;;;;;;;;;;;5124085;28;20010;-88
2021/11/01 16:51:32;;;;;;;;;;;;;;;;;;5130164;27;19968;-89
2021/11/01 16:53:58;;;;;;;;;;;;;;;;;;5132161;28;19968;-84
2021/11/01 16:59:06;;;;;;;;;;;;;;;;;;5134738;27;20010;-85
2021/11/01 17:01:32;;;;;;;;;;;;;;;;;;5134534;27;19919;-84
2021/11/01 17:04:04;;;;;;;;;;;;;;;;;;5133977;27;20056;-84
2021/11/01 17:06:47;;;;;;;;;;;;;;;;;;5134185;27;19966;-85
2021/11/01 17:23:11;;;;;;;;;;;;;;;;;;5103948;28;19916;-79
2021/11/01 17:37:12;;;;;;;;;;;;;;;;;;5117170;28;20045;-79
2021/11/01 18:40:52;;;;;;;;;;;;;;;;;;5110559;28;19968;-84
2021/11/01 18:53:34;;;;;;;;;;;;;;;;;;5131558;27;19926;-80
2021/11/01 18:56:02;;;;;;;;;;;;;;;;;;5132766;27;19927;-78
2021/11/01 18:58:28;;;;;;;;;;;;;;;;;;5122772;27;20402;-89
2021/11/01 19:00:56;;;;;;;;;;;;;;;;;;5120008;27;19924;-86
2021/11/01 19:03:23;;;;;;;;;;;;;;;;;;5136453;27;19920;-84
2021/11/01 19:08:43;;;;;;;;;;;;;;;;;;5130804;27;19957;-81
2021/11/01 19:14:29;;;;;;;;;;;;;;;;;;5136521;27;20408;-81
2021/11/01 20:05:52;;;;;;;;;;;;;;;;;;5135119;27;20037;-79
2021/11/01 20:11:17;;;;;;;;;;;;;;;;;;5135392;27;20371;-80
2021/11/01 21:25:46;;;;;;;;;;;;;;;;;;5138045;27;20562;-81
2021/11/01 21:28:11;;;;;;;;;;;;;;;;;;5137734;27;19923;-80
2021/11/01 21:30:37;;;;;;;;;;;;;;;;;;5137614;27;20386;-80
2021/11/01 21:33:03;;;;;;;;;;;;;;;;;;5137631;27;19968;-81
2021/11/01 21:35:30;;;;;;;;;;;;;;;;;;5139206;27;19916;-79
2021/11/01 21:37:58;;;;;;;;;;;;;;;;;;5139108;27;19938;-79
2021/11/01 21:40:24;;;;;;;;;;;;;;;;;;5139067;27;19915;-79
2021/11/01 21:42:52;;;;;;;;;;;;;;;;;;5136308;27;20279;-79
2021/11/01 21:45:17;;;;;;;;;;;;;;;;;;5136199;27;19919;-79
2021/11/01 21:47:43;;;;;;;;;;;;;;;;;;5137363;27;19983;-79
2021/11/01 21:50:08;;;;;;;;;;;;;;;;;;5137303;27;19957;-79
2021/11/01 21:52:35;;;;;;;;;;;;;;;;;;5137311;27;19915;-80
2021/11/01 21:55:01;;;;;;;;;;;;;;;;;;5136680;27;20351;-79
2021/11/01 21:57:35;;;;;;;;;;;;;;;;;;5137118;27;19954;-79
2021/11/01 22:21:14;;;;;;;;;;;;;;;;;;5136641;27;19922;-79
2021/11/01 22:24:08;;;;;;;;;;;;;;;;;;5136453;27;19919;-79
2021/11/01 22:34:32;;;;;;;;;;;;;;;;;;5136795;27;20275;-80
2021/11/01 22:39:51;;;;;;;;;;;;;;;;;;5136646;27;20415;-80
2021/11/01 22:42:30;;;;;;;;;;;;;;;;;;5136442;27;20096;-79
2021/11/01 22:45:12;;;;;;;;;;;;;;;;;;5136132;27;19926;-79
2021/11/01 22:58:27;;;;;;;;;;;;;;;;;;5113149;28;19920;-80
2021/11/01 23:01:07;;;;;;;;;;;;;;;;;;5112981;28;20044;-79
2021/11/01 23:33:08;;;;;;;;;;;;;;;;;;5135310;27;19922;-80
2021/11/01 23:35:33;;;;;;;;;;;;;;;;;;5135186;27;19916;-80
2021/11/01 23:37:59;;;;;;;;;;;;;;;;;;5135140;27;19916;-79
2021/11/01 23:40:25;;;;;;;;;;;;;;;;;;5135096;27;19968;-80
2021/11/01 23:42:50;;;;;;;;;;;;;;;;;;5134944;27;19915;-79
2021/11/01 23:45:15;;;;;;;;;;;;;;;;;;5135050;27;19915;-79
2021/11/01 23:47:41;;;;;;;;;;;;;;;;;;5134882;27;20359;-79
2021/11/01 23:50:07;;;;;;;;;;;;;;;;;;5134971;27;20272;-79
2021/11/01 23:53:16;;;;;;;;;;;;;;;;;;5134843;27;19965;-79
2021/11/01 23:55:21;;;;;;;;;;;;;;;;;;5131626;27;19916;-79
2021/11/01 23:57:47;;;;;;;;;;;;;;;;;;5134935;27;19916;-79
